African Highway — 3EOD8 — position and weather

sailwx.info

Track history (hours):
 
Tides and Currents Weather Stations Pressure Air Temp Water Temp Dewpoint Dewpoint Depression Visibility Wind Speed Wind Dir Waves Ship Positions

African Highway

Last reported at 2015-May-05 23:32 UTC. Time now 2015-May-06 00:22 UTC.
Position N 53°20' E 007°10'.

Length 154.5 m; beam 27.6 m.

Type: Cargo ship. MMSI: 353633000.

Date/timePositionNaut miles runAvg speedWind from/ knotsBaromVisibWave heightAir tempDewpointWater temp
2015-May-05 23:32N 53°20' E 007°10'0 0.0
2015-May-05 22:32N 53°20' E 007°10'0 0.0
2015-May-05 21:32N 53°20' E 007°10'0 0.0
2015-May-05 20:32N 53°20' E 007°10'0 0.0
2015-May-05 19:32N 53°20' E 007°10'0 0.0
2015-May-05 18:32N 53°20' E 007°10'0 0.0
2015-May-05 17:29N 53°20' E 007°10'0 0.0
2015-May-05 16:32N 53°20' E 007°10'0 0.0
2015-May-05 15:32N 53°20' E 007°10'0 0.0
2015-May-05 14:32N 53°20' E 007°10'0 0.0
2015-May-05 13:20N 53°20' E 007°10'0 0.0
2015-May-05 12:32N 53°20' E 007°10'0 0.0
2015-May-05 11:32N 53°20' E 007°10'0 0.0
2015-May-05 10:29N 53°20' E 007°10'0 0.0
2015-May-05 09:29N 53°20' E 007°10'0 0.0
2015-May-05 08:29N 53°20' E 007°10'4 4.3
2015-May-05 07:34N 53°19' E 007°04'1414.2
2015-May-05 06:33N 53°30' E 006°48'1414.0
2015-May-05 05:33N 53°37' E 006°27'1211.7
2015-May-05 04:33N 53°40' E 006°08'1514.9
2015-May-05 03:33N 53°36' E 005°44'1514.6
2015-May-05 02:33N 53°32' E 005°20'1414.5
2015-May-05 01:33N 53°27' E 004°57'1413.7
2015-May-05 00:33N 53°19' E 004°38'1414.4
2015-May-04 23:33N 53°07' E 004°27'1514.6
2015-May-04 22:33N 52°54' E 004°15'1414.3
2015-May-04 21:33N 52°42' E 004°02'1413.8
2015-May-04 20:33N 52°32' E 003°46'7414.8
2015-May-04 15:33N 51°45' E 002°12'1817.7
2015-May-04 14:34N 51°35' E 001°49'1615.6
2015-May-04 13:33N 51°28' E 001°27'1313.0
2015-May-04 12:34N 51°29' E 001°06'1312.5
2015-May-04 11:34N 51°27' E 000°46'2 1.5
2015-May-04 10:30N 51°26' E 000°44'0 0.0
2015-May-04 09:33N 51°26' E 000°44'0 0.0
2015-May-04 08:33N 51°26' E 000°44'0 0.0
2015-May-04 07:33N 51°26' E 000°44'0 0.0
2015-May-04 06:33N 51°26' E 000°44'0 0.0
2015-May-04 05:33N 51°26' E 000°44'0 0.0
2015-May-04 04:33N 51°26' E 000°44'0 0.0
2015-May-04 03:33N 51°26' E 000°44'0 0.0
2015-May-04 02:33N 51°26' E 000°44'0 0.0
2015-May-04 01:33N 51°26' E 000°44'0 0.0
2015-May-04 00:33N 51°26' E 000°44'0 0.0
2015-May-03 23:33N 51°26' E 000°44'0 0.0
2015-May-03 22:33N 51°26' E 000°44'0 0.0
2015-May-03 21:33N 51°26' E 000°44'0 0.0
2015-May-03 20:33N 51°26' E 000°44'1 1.2
2015-May-03 19:33N 51°27' E 000°45'8 8.4
2015-May-03 18:33N 51°29' E 000°58'1111.4
2015-May-03 17:33N 51°29' E 001°17'1110.5
2015-May-03 16:33N 51°26' E 001°33'7 6.9
2015-May-03 15:33N 51°31' E 001°39'1111.0
2015-May-03 14:33N 51°37' E 001°54'1110.5
2015-May-03 13:33N 51°43' E 002°08'7313.4
2015-May-03 08:06N 52°36' E 003°29'916.6
2015-May-03 07:32N 52°44' E 003°38'2115.6
2015-May-03 06:10N 52°59' E 004°03'915.0
2015-May-03 05:33N 53°05' E 004°15'1413.3
2015-May-03 04:30N 53°16' E 004°30'1313.9
2015-May-03 03:33N 53°28' E 004°39'1515.2
2015-May-03 02:34N 53°34' E 005°03'1716.7
2015-May-03 01:33N 53°39' E 005°29'1716.7
2015-May-03 00:32N 53°45' E 005°56'1211.9
2015-May-02 23:32N 53°40' E 006°15'1312.6
2015-May-02 22:32N 53°36' E 006°35'1414.1
2015-May-02 21:33N 53°27' E 006°53'1010.5
2015-May-02 20:33N 53°20' E 007°06'3 3.1
2015-May-02 19:33N 53°20' E 007°11'0 0.0
2015-May-02 18:32N 53°20' E 007°11'0 0.0
2015-May-02 17:33N 53°20' E 007°11'0 0.0
2015-May-02 16:32N 53°20' E 007°11'0 0.0
2015-May-02 15:33N 53°20' E 007°11'0 0.0
2015-May-02 14:33N 53°20' E 007°11'0 0.0
2015-May-02 13:33N 53°20' E 007°11'0 0.0
2015-May-02 12:33N 53°20' E 007°11'0 0.0
2015-May-02 11:33N 53°20' E 007°11'0 0.0
2015-May-02 10:30N 53°20' E 007°11'0 0.0
2015-May-02 09:27N 53°20' E 007°11'0 0.0
2015-May-02 08:33N 53°20' E 007°11'0 0.0
2015-May-02 07:33N 53°20' E 007°11'0 0.0
2015-May-02 06:33N 53°20' E 007°11'0 0.0
2015-May-02 05:33N 53°20' E 007°11'0 0.0
2015-May-02 04:33N 53°20' E 007°11'0 0.0
2015-May-02 03:33N 53°20' E 007°11'0 0.0
2015-May-02 02:33N 53°20' E 007°11'0 0.0
2015-May-02 01:33N 53°20' E 007°11'0 0.0
2015-May-02 00:33N 53°20' E 007°11'0 0.0
2015-May-01 23:33N 53°20' E 007°11'0 0.0
2015-May-01 22:33N 53°20' E 007°11'0 0.0
2015-May-01 21:33N 53°20' E 007°11'0 0.0
2015-May-01 20:33N 53°20' E 007°11'0 0.0
2015-May-01 19:33N 53°20' E 007°11'0 0.0
2015-May-01 18:33N 53°20' E 007°11'0 0.0
2015-May-01 17:33N 53°20' E 007°11'0 0.0
2015-May-01 16:33N 53°20' E 007°11'0 0.0
2015-May-01 15:33N 53°20' E 007°11'0 0.0
2015-May-01 14:33N 53°20' E 007°11'0 0.0
2015-May-01 13:30N 53°20' E 007°11'0 0.0
2015-May-01 12:33N 53°20' E 007°11'0 0.0
2015-May-01 11:29N 53°20' E 007°11'0 0.0
2015-May-01 10:33N 53°20' E 007°11'0 0.0
2015-May-01 09:30N 53°20' E 007°11'0 0.0
2015-May-01 08:32N 53°20' E 007°11'5 4.8
2015-May-01 07:33N 53°19' E 007°03'1514.7
2015-May-01 06:33N 53°31' E 006°47'1515.1
2015-May-01 05:33N 53°37' E 006°24'1110.6
2015-May-01 04:34N 53°37' E 006°06'1313.3
2015-May-01 03:33N 53°35' E 005°44'1616.4
2015-May-01 02:33N 53°32' E 005°17'1616.5
2015-May-01 01:33N 53°26' E 004°51'1615.1
2015-May-01 00:30N 53°14' E 004°33'1415.0
2015-Apr-30 23:33N 53°02' E 004°22'1514.6
2015-Apr-30 22:33N 52°48' E 004°14'1515.0
2015-Apr-30 21:33N 52°37' E 003°56'1514.9
2015-Apr-30 20:33N 52°27' E 003°38'2014.5
2015-Apr-30 19:12N 52°13' E 003°15'914.2
2015-Apr-30 18:33N 52°07' E 003°05'1514.8
2015-Apr-30 17:33N 51°56' E 002°48'1413.8
2015-Apr-30 16:33N 51°52' E 002°27'1615.7
2015-Apr-30 15:34N 51°43' E 002°07'1616.2
2015-Apr-30 14:34N 51°33' E 001°45'1212.5
2015-Apr-30 13:33N 51°27' E 001°28'1615.5
2015-Apr-30 12:34N 51°30' E 001°03'1212.2
2015-Apr-30 11:33N 51°26' E 000°44'0 0.0
2015-Apr-30 10:33N 51°26' E 000°44'0 0.0
2015-Apr-30 09:33N 51°26' E 000°44'0 0.0
2015-Apr-30 08:33N 51°26' E 000°44'0 0.0
2015-Apr-30 07:33N 51°26' E 000°44'0 0.0
2015-Apr-30 06:30N 51°26' E 000°44'0 0.0
2015-Apr-30 05:33N 51°26' E 000°44'0 0.0
2015-Apr-30 04:33N 51°26' E 000°44'0 0.0
2015-Apr-30 03:30N 51°26' E 000°44'0 0.0
2015-Apr-30 02:33N 51°26' E 000°44'0 0.0
2015-Apr-30 01:33N 51°26' E 000°44'0 0.0
2015-Apr-30 00:33N 51°26' E 000°44'0 0.0
2015-Apr-29 23:33N 51°26' E 000°44'0 0.0
2015-Apr-29 22:33N 51°26' E 000°44'0 0.0
2015-Apr-29 21:33N 51°26' E 000°44'0 0.0
2015-Apr-29 20:33N 51°26' E 000°44'0 0.1
2015-Apr-29 19:33N 51°26' E 000°44'9 8.5
2015-Apr-29 18:33N 51°29' E 000°57'1414.0
2015-Apr-29 17:33N 51°29' E 001°20'5 5.2
2015-Apr-29 16:33N 51°25' E 001°26'1 1.1
2015-Apr-29 15:32N 51°25' E 001°24'0 0.0
2015-Apr-29 14:32N 51°25' E 001°24'0 0.1
2015-Apr-29 13:33N 51°25' E 001°24'0 0.0
2015-Apr-29 12:33N 51°25' E 001°24'0 0.0
2015-Apr-29 11:33N 51°25' E 001°24'0 0.0
2015-Apr-29 10:33N 51°25' E 001°24'0 0.0
2015-Apr-29 09:34N 51°25' E 001°24'0 0.1
2015-Apr-29 08:34N 51°25' E 001°24'1 0.5
2015-Apr-29 07:33N 51°25' E 001°25'1010.0
2015-Apr-29 06:33N 51°30' E 001°39'1515.2
2015-Apr-29 05:33N 51°35' E 002°02'1615.4
2015-Apr-29 04:33N 51°45' E 002°22'13014.2
2015-Apr-28 19:23N 53°27' E 004°35'1214.7
2015-Apr-28 18:34N 53°31' E 004°54'1414.4
2015-Apr-28 17:33N 53°36' E 005°17'1413.5
2015-Apr-28 16:34N 53°40' E 005°38'1313.1
2015-Apr-28 15:33N 53°44' E 005°59'1010.3
2015-Apr-28 14:33N 53°40' E 006°15'1211.3
2015-Apr-28 13:30N 53°36' E 006°34'1314.1
2015-Apr-28 12:33N 53°28' E 006°52'1211.7
2015-Apr-28 11:33N 53°20' E 007°06'4 3.5
2015-Apr-28 10:33N 53°20' E 007°12'0 0.4
2015-Apr-28 09:32N 53°21' E 007°12'0 0.0
2015-Apr-28 08:30N 53°21' E 007°12'0 0.0
2015-Apr-28 07:33N 53°21' E 007°12'0 0.0
2015-Apr-28 06:27N 53°21' E 007°12'0 0.0
2015-Apr-28 05:33N 53°21' E 007°12'0 0.0
2015-Apr-28 04:30N 53°21' E 007°12'0 0.0
2015-Apr-28 03:33N 53°21' E 007°12'0 0.0
2015-Apr-28 02:30N 53°21' E 007°12'0 0.0
2015-Apr-28 01:33N 53°21' E 007°12'0 0.0
2015-Apr-28 00:33N 53°21' E 007°12'0 0.0
2015-Apr-27 23:33N 53°21' E 007°12'0 0.0
2015-Apr-27 22:33N 53°21' E 007°12'0 0.0
2015-Apr-27 21:33N 53°21' E 007°12'0 0.0
2015-Apr-27 20:33N 53°21' E 007°12'0 0.0
2015-Apr-27 19:33N 53°21' E 007°12'0 0.0
2015-Apr-27 18:33N 53°21' E 007°12'0 0.0
2015-Apr-27 17:33N 53°21' E 007°12'0 0.0
2015-Apr-27 16:33N 53°21' E 007°12'0 0.0
2015-Apr-27 15:33N 53°21' E 007°12'0 0.0
2015-Apr-27 14:33N 53°21' E 007°12'0 0.0
2015-Apr-27 13:33N 53°21' E 007°12'0 0.0
2015-Apr-27 12:33N 53°21' E 007°12'0 0.0
2015-Apr-27 11:32N 53°21' E 007°12'0 0.0
2015-Apr-27 10:33N 53°21' E 007°12'0 0.0
2015-Apr-27 09:30N 53°21' E 007°12'0 0.0
2015-Apr-27 08:33N 53°21' E 007°12'0 0.0
2015-Apr-27 07:30N 53°21' E 007°12'0 0.0
2015-Apr-27 06:33N 53°21' E 007°12'0 0.0
2015-Apr-27 05:33N 53°21' E 007°12'0 0.0
2015-Apr-27 04:33N 53°21' E 007°12'0 0.0
2015-Apr-27 03:30N 53°21' E 007°12'0 0.0
2015-Apr-27 02:33N 53°21' E 007°12'0 0.0
2015-Apr-27 01:33N 53°21' E 007°12'0 0.0
2015-Apr-27 00:30N 53°21' E 007°12'0 0.0
2015-Apr-26 23:33N 53°21' E 007°12'0 0.0
2015-Apr-26 22:33N 53°21' E 007°12'0 0.0
2015-Apr-26 21:27N 53°21' E 007°12'0 0.0
2015-Apr-26 20:33N 53°21' E 007°12'0 0.0
2015-Apr-26 19:33N 53°21' E 007°12'2 1.6
2015-Apr-26 18:33N 53°20' E 007°09'7 7.3
2015-Apr-26 17:33N 53°23' E 006°58'1313.0
2015-Apr-26 16:33N 53°32' E 006°43'1312.8
2015-Apr-26 15:33N 53°37' E 006°23'1111.2
2015-Apr-26 14:33N 53°37' E 006°04'7 6.7
2015-Apr-26 13:33N 53°36' E 005°53'4 3.9
2015-Apr-26 12:33N 53°37' E 005°47'1514.6
2015-Apr-26 11:33N 53°50' E 005°35'1616.1
2015-Apr-26 10:33N 53°55' E 005°09'16515.0
2015-Apr-25 23:34N 53°33' E 000°32'  
Track history (hours):
 
Tides and Currents Weather Stations Pressure Air Temp Water Temp Dewpoint Dewpoint Depression Visibility Wind Speed Wind Dir Waves Ship Positions

African Highway

Last reported at 2015-May-05 23:32 UTC. Time now 2015-May-06 00:22 UTC.
Position N 53°20' E 007°10'.

Length 154.5 m; beam 27.6 m.

Type: Cargo ship. MMSI: 353633000.

Date/timePositionNaut miles runAvg speedWind from/ knotsBaromVisibWave heightAir tempDewpointWater temp
2015-May-05 23:32N 53°20' E 007°10'0 0.0
2015-May-05 22:32N 53°20' E 007°10'0 0.0
2015-May-05 21:32N 53°20' E 007°10'0 0.0
2015-May-05 20:32N 53°20' E 007°10'0 0.0
2015-May-05 19:32N 53°20' E 007°10'0 0.0
2015-May-05 18:32N 53°20' E 007°10'0 0.0
2015-May-05 17:29N 53°20' E 007°10'0 0.0
2015-May-05 16:32N 53°20' E 007°10'0 0.0
2015-May-05 15:32N 53°20' E 007°10'0 0.0
2015-May-05 14:32N 53°20' E 007°10'0 0.0
2015-May-05 13:20N 53°20' E 007°10'0 0.0
2015-May-05 12:32N 53°20' E 007°10'0 0.0
2015-May-05 11:32N 53°20' E 007°10'0 0.0
2015-May-05 10:29N 53°20' E 007°10'0 0.0
2015-May-05 09:29N 53°20' E 007°10'0 0.0
2015-May-05 08:29N 53°20' E 007°10'4 4.3
2015-May-05 07:34N 53°19' E 007°04'1414.2
2015-May-05 06:33N 53°30' E 006°48'1414.0
2015-May-05 05:33N 53°37' E 006°27'1211.7
2015-May-05 04:33N 53°40' E 006°08'1514.9
2015-May-05 03:33N 53°36' E 005°44'1514.6
2015-May-05 02:33N 53°32' E 005°20'1414.5
2015-May-05 01:33N 53°27' E 004°57'1413.7
2015-May-05 00:33N 53°19' E 004°38'1414.4
2015-May-04 23:33N 53°07' E 004°27'1514.6
2015-May-04 22:33N 52°54' E 004°15'1414.3
2015-May-04 21:33N 52°42' E 004°02'1413.8
2015-May-04 20:33N 52°32' E 003°46'7414.8
2015-May-04 15:33N 51°45' E 002°12'1817.7
2015-May-04 14:34N 51°35' E 001°49'1615.6
2015-May-04 13:33N 51°28' E 001°27'1313.0
2015-May-04 12:34N 51°29' E 001°06'1312.5
2015-May-04 11:34N 51°27' E 000°46'2 1.5
2015-May-04 10:30N 51°26' E 000°44'0 0.0
2015-May-04 09:33N 51°26' E 000°44'0 0.0
2015-May-04 08:33N 51°26' E 000°44'0 0.0
2015-May-04 07:33N 51°26' E 000°44'0 0.0
2015-May-04 06:33N 51°26' E 000°44'0 0.0
2015-May-04 05:33N 51°26' E 000°44'0 0.0
2015-May-04 04:33N 51°26' E 000°44'0 0.0
2015-May-04 03:33N 51°26' E 000°44'0 0.0
2015-May-04 02:33N 51°26' E 000°44'0 0.0
2015-May-04 01:33N 51°26' E 000°44'0 0.0
2015-May-04 00:33N 51°26' E 000°44'0 0.0
2015-May-03 23:33N 51°26' E 000°44'0 0.0
2015-May-03 22:33N 51°26' E 000°44'0 0.0
2015-May-03 21:33N 51°26' E 000°44'0 0.0
2015-May-03 20:33N 51°26' E 000°44'1 1.2
2015-May-03 19:33N 51°27' E 000°45'8 8.4
2015-May-03 18:33N 51°29' E 000°58'1111.4
2015-May-03 17:33N 51°29' E 001°17'1110.5
2015-May-03 16:33N 51°26' E 001°33'7 6.9
2015-May-03 15:33N 51°31' E 001°39'1111.0
2015-May-03 14:33N 51°37' E 001°54'1110.5
2015-May-03 13:33N 51°43' E 002°08'7313.4
2015-May-03 08:06N 52°36' E 003°29'916.6
2015-May-03 07:32N 52°44' E 003°38'2115.6
2015-May-03 06:10N 52°59' E 004°03'915.0
2015-May-03 05:33N 53°05' E 004°15'1413.3
2015-May-03 04:30N 53°16' E 004°30'1313.9
2015-May-03 03:33N 53°28' E 004°39'1515.2
2015-May-03 02:34N 53°34' E 005°03'1716.7
2015-May-03 01:33N 53°39' E 005°29'1716.7
2015-May-03 00:32N 53°45' E 005°56'1211.9
2015-May-02 23:32N 53°40' E 006°15'1312.6
2015-May-02 22:32N 53°36' E 006°35'1414.1
2015-May-02 21:33N 53°27' E 006°53'1010.5
2015-May-02 20:33N 53°20' E 007°06'3 3.1
2015-May-02 19:33N 53°20' E 007°11'0 0.0
2015-May-02 18:32N 53°20' E 007°11'0 0.0
2015-May-02 17:33N 53°20' E 007°11'0 0.0
2015-May-02 16:32N 53°20' E 007°11'0 0.0
2015-May-02 15:33N 53°20' E 007°11'0 0.0
2015-May-02 14:33N 53°20' E 007°11'0 0.0
2015-May-02 13:33N 53°20' E 007°11'0 0.0
2015-May-02 12:33N 53°20' E 007°11'0 0.0
2015-May-02 11:33N 53°20' E 007°11'0 0.0
2015-May-02 10:30N 53°20' E 007°11'0 0.0
2015-May-02 09:27N 53°20' E 007°11'0 0.0
2015-May-02 08:33N 53°20' E 007°11'0 0.0
2015-May-02 07:33N 53°20' E 007°11'0 0.0
2015-May-02 06:33N 53°20' E 007°11'0 0.0
2015-May-02 05:33N 53°20' E 007°11'0 0.0
2015-May-02 04:33N 53°20' E 007°11'0 0.0
2015-May-02 03:33N 53°20' E 007°11'0 0.0
2015-May-02 02:33N 53°20' E 007°11'0 0.0
2015-May-02 01:33N 53°20' E 007°11'0 0.0
2015-May-02 00:33N 53°20' E 007°11'0 0.0
2015-May-01 23:33N 53°20' E 007°11'0 0.0
2015-May-01 22:33N 53°20' E 007°11'0 0.0
2015-May-01 21:33N 53°20' E 007°11'0 0.0
2015-May-01 20:33N 53°20' E 007°11'0 0.0
2015-May-01 19:33N 53°20' E 007°11'0 0.0
2015-May-01 18:33N 53°20' E 007°11'0 0.0
2015-May-01 17:33N 53°20' E 007°11'0 0.0
2015-May-01 16:33N 53°20' E 007°11'0 0.0
2015-May-01 15:33N 53°20' E 007°11'0 0.0
2015-May-01 14:33N 53°20' E 007°11'0 0.0
2015-May-01 13:30N 53°20' E 007°11'0 0.0
2015-May-01 12:33N 53°20' E 007°11'0 0.0
2015-May-01 11:29N 53°20' E 007°11'0 0.0
2015-May-01 10:33N 53°20' E 007°11'0 0.0
2015-May-01 09:30N 53°20' E 007°11'0 0.0
2015-May-01 08:32N 53°20' E 007°11'5 4.8
2015-May-01 07:33N 53°19' E 007°03'1514.7
2015-May-01 06:33N 53°31' E 006°47'1515.1
2015-May-01 05:33N 53°37' E 006°24'1110.6
2015-May-01 04:34N 53°37' E 006°06'1313.3
2015-May-01 03:33N 53°35' E 005°44'1616.4
2015-May-01 02:33N 53°32' E 005°17'1616.5
2015-May-01 01:33N 53°26' E 004°51'1615.1
2015-May-01 00:30N 53°14' E 004°33'1415.0
2015-Apr-30 23:33N 53°02' E 004°22'1514.6
2015-Apr-30 22:33N 52°48' E 004°14'1515.0
2015-Apr-30 21:33N 52°37' E 003°56'1514.9
2015-Apr-30 20:33N 52°27' E 003°38'2014.5
2015-Apr-30 19:12N 52°13' E 003°15'914.2
2015-Apr-30 18:33N 52°07' E 003°05'1514.8
2015-Apr-30 17:33N 51°56' E 002°48'1413.8
2015-Apr-30 16:33N 51°52' E 002°27'1615.7
2015-Apr-30 15:34N 51°43' E 002°07'1616.2
2015-Apr-30 14:34N 51°33' E 001°45'1212.5
2015-Apr-30 13:33N 51°27' E 001°28'1615.5
2015-Apr-30 12:34N 51°30' E 001°03'1212.2
2015-Apr-30 11:33N 51°26' E 000°44'0 0.0
2015-Apr-30 10:33N 51°26' E 000°44'0 0.0
2015-Apr-30 09:33N 51°26' E 000°44'0 0.0
2015-Apr-30 08:33N 51°26' E 000°44'0 0.0
2015-Apr-30 07:33N 51°26' E 000°44'0 0.0
2015-Apr-30 06:30N 51°26' E 000°44'0 0.0
2015-Apr-30 05:33N 51°26' E 000°44'0 0.0
2015-Apr-30 04:33N 51°26' E 000°44'0 0.0
2015-Apr-30 03:30N 51°26' E 000°44'0 0.0
2015-Apr-30 02:33N 51°26' E 000°44'0 0.0
2015-Apr-30 01:33N 51°26' E 000°44'0 0.0
2015-Apr-30 00:33N 51°26' E 000°44'0 0.0
2015-Apr-29 23:33N 51°26' E 000°44'0 0.0
2015-Apr-29 22:33N 51°26' E 000°44'0 0.0
2015-Apr-29 21:33N 51°26' E 000°44'0 0.0
2015-Apr-29 20:33N 51°26' E 000°44'0 0.1
2015-Apr-29 19:33N 51°26' E 000°44'9 8.5
2015-Apr-29 18:33N 51°29' E 000°57'1414.0
2015-Apr-29 17:33N 51°29' E 001°20'5 5.2
2015-Apr-29 16:33N 51°25' E 001°26'1 1.1
2015-Apr-29 15:32N 51°25' E 001°24'0 0.0
2015-Apr-29 14:32N 51°25' E 001°24'0 0.1
2015-Apr-29 13:33N 51°25' E 001°24'0 0.0
2015-Apr-29 12:33N 51°25' E 001°24'0 0.0
2015-Apr-29 11:33N 51°25' E 001°24'0 0.0
2015-Apr-29 10:33N 51°25' E 001°24'0 0.0
2015-Apr-29 09:34N 51°25' E 001°24'0 0.1
2015-Apr-29 08:34N 51°25' E 001°24'1 0.5
2015-Apr-29 07:33N 51°25' E 001°25'1010.0
2015-Apr-29 06:33N 51°30' E 001°39'1515.2
2015-Apr-29 05:33N 51°35' E 002°02'1615.4
2015-Apr-29 04:33N 51°45' E 002°22'13014.2
2015-Apr-28 19:23N 53°27' E 004°35'1214.7
2015-Apr-28 18:34N 53°31' E 004°54'1414.4
2015-Apr-28 17:33N 53°36' E 005°17'1413.5
2015-Apr-28 16:34N 53°40' E 005°38'1313.1
2015-Apr-28 15:33N 53°44' E 005°59'1010.3
2015-Apr-28 14:33N 53°40' E 006°15'1211.3
2015-Apr-28 13:30N 53°36' E 006°34'1314.1
2015-Apr-28 12:33N 53°28' E 006°52'1211.7
2015-Apr-28 11:33N 53°20' E 007°06'4 3.5
2015-Apr-28 10:33N 53°20' E 007°12'0 0.4
2015-Apr-28 09:32N 53°21' E 007°12'0 0.0
2015-Apr-28 08:30N 53°21' E 007°12'0 0.0
2015-Apr-28 07:33N 53°21' E 007°12'0 0.0
2015-Apr-28 06:27N 53°21' E 007°12'0 0.0
2015-Apr-28 05:33N 53°21' E 007°12'0 0.0
2015-Apr-28 04:30N 53°21' E 007°12'0 0.0
2015-Apr-28 03:33N 53°21' E 007°12'0 0.0
2015-Apr-28 02:30N 53°21' E 007°12'0 0.0
2015-Apr-28 01:33N 53°21' E 007°12'0 0.0
2015-Apr-28 00:33N 53°21' E 007°12'0 0.0
2015-Apr-27 23:33N 53°21' E 007°12'0 0.0
2015-Apr-27 22:33N 53°21' E 007°12'0 0.0
2015-Apr-27 21:33N 53°21' E 007°12'0 0.0
2015-Apr-27 20:33N 53°21' E 007°12'0 0.0
2015-Apr-27 19:33N 53°21' E 007°12'0 0.0
2015-Apr-27 18:33N 53°21' E 007°12'0 0.0
2015-Apr-27 17:33N 53°21' E 007°12'0 0.0
2015-Apr-27 16:33N 53°21' E 007°12'0 0.0
2015-Apr-27 15:33N 53°21' E 007°12'0 0.0
2015-Apr-27 14:33N 53°21' E 007°12'0 0.0
2015-Apr-27 13:33N 53°21' E 007°12'0 0.0
2015-Apr-27 12:33N 53°21' E 007°12'0 0.0
2015-Apr-27 11:32N 53°21' E 007°12'0 0.0
2015-Apr-27 10:33N 53°21' E 007°12'0 0.0
2015-Apr-27 09:30N 53°21' E 007°12'0 0.0
2015-Apr-27 08:33N 53°21' E 007°12'0 0.0
2015-Apr-27 07:30N 53°21' E 007°12'0 0.0
2015-Apr-27 06:33N 53°21' E 007°12'0 0.0
2015-Apr-27 05:33N 53°21' E 007°12'0 0.0
2015-Apr-27 04:33N 53°21' E 007°12'0 0.0
2015-Apr-27 03:30N 53°21' E 007°12'0 0.0
2015-Apr-27 02:33N 53°21' E 007°12'0 0.0
2015-Apr-27 01:33N 53°21' E 007°12'0 0.0
2015-Apr-27 00:30N 53°21' E 007°12'0 0.0
2015-Apr-26 23:33N 53°21' E 007°12'0 0.0
2015-Apr-26 22:33N 53°21' E 007°12'0 0.0
2015-Apr-26 21:27N 53°21' E 007°12'0 0.0
2015-Apr-26 20:33N 53°21' E 007°12'0 0.0
2015-Apr-26 19:33N 53°21' E 007°12'2 1.6
2015-Apr-26 18:33N 53°20' E 007°09'7 7.3
2015-Apr-26 17:33N 53°23' E 006°58'1313.0
2015-Apr-26 16:33N 53°32' E 006°43'1312.8
2015-Apr-26 15:33N 53°37' E 006°23'1111.2
2015-Apr-26 14:33N 53°37' E 006°04'7 6.7
2015-Apr-26 13:33N 53°36' E 005°53'4 3.9
2015-Apr-26 12:33N 53°37' E 005°47'1514.6
2015-Apr-26 11:33N 53°50' E 005°35'1616.1
2015-Apr-26 10:33N 53°55' E 005°09'16515.0
2015-Apr-25 23:34N 53°33' E 000°32'  

Dump ship's entire track history